Time;durP1;ratioP1;P1;durP2;ratioP2;P2;SDS_P1;SDS_P2;PMS_P1;PMS_P2;Temp;Humidity;BMP_temperature;BMP_pressure;BME280_temperature;BME280_humidity;BME280_pressure;Samples;Min_cycle;Max_cycle;Signal;HPM_P1;HPM_P2
2022/05/23 00:01:13;;;;;;;;;;;;;;;24.10;18.27;100340.47;5034955;28;19947;-70
2022/05/23 00:03:38;;;;;;;;;;;;;;;24.10;18.48;100340.47;5034846;28;19917;-70
2022/05/23 00:06:05;;;;;;;;;;;;;;;24.10;18.35;100337.72;5034898;28;20276;-70
2022/05/23 00:08:31;;;;;;;;;;;;;;;24.10;18.37;100340.47;5034422;28;19963;-70
2022/05/23 00:10:57;;;;;;;;;;;;;;;24.10;18.18;100343.19;5034752;28;19917;-70
2022/05/23 00:13:22;;;;;;;;;;;;;;;24.09;18.36;100341.53;5034782;28;20368;-70
2022/05/23 00:15:47;;;;;;;;;;;;;;;24.08;18.30;100348.13;5034344;28;20059;-70
2022/05/23 00:18:12;;;;;;;;;;;;;;;24.08;18.25;100344.56;5034257;28;20000;-70
2022/05/23 00:20:38;;;;;;;;;;;;;;;24.06;18.29;100353.03;5035044;28;19917;-70
2022/05/23 00:23:03;;;;;;;;;;;;;;;24.08;18.30;100353.56;5034069;28;19917;-70
2022/05/23 00:25:28;;;;;;;;;;;;;;;24.07;18.31;100351.94;5034503;28;19943;-70
2022/05/23 00:27:53;;;;;;;;;;;;;;;24.07;18.42;100351.13;5034435;28;20359;-70
2022/05/23 00:30:20;;;;;;;;;;;;;;;24.07;18.31;100357.38;5033935;28;19929;-70
2022/05/23 00:35:29;;;;;;;;;;;;;;;24.07;18.26;100351.94;5034439;28;20377;-70
2022/05/23 00:37:55;;;;;;;;;;;;;;;24.07;18.28;100357.38;5033918;28;19917;-70
2022/05/23 00:40:30;;;;;;;;;;;;;;;24.08;18.26;100358.22;5034209;28;19923;-70
2022/05/23 00:43:14;;;;;;;;;;;;;;;24.08;18.11;100363.69;5022427;28;19941;-70
2022/05/23 00:45:40;;;;;;;;;;;;;;;24.07;18.22;100362.84;4999113;28;19929;-70
2022/05/23 00:48:05;;;;;;;;;;;;;;;24.08;18.18;100361.75;5013952;28;19987;-70
2022/05/23 00:50:32;;;;;;;;;;;;;;;24.07;18.25;100360.13;5014041;28;19933;-70
2022/05/23 00:52:57;;;;;;;;;;;;;;;24.07;18.13;100362.84;4997687;28;20256;-70
2022/05/23 00:55:30;;;;;;;;;;;;;;;24.06;18.30;100366.69;5019586;28;19945;-70
2022/05/23 00:57:56;;;;;;;;;;;;;;;24.07;18.22;100362.03;5021885;28;19913;-70
2022/05/23 01:00:21;;;;;;;;;;;;;;;24.07;18.23;100368.31;5026255;28;19925;-70
2022/05/23 01:02:51;;;;;;;;;;;;;;;24.07;18.29;100362.03;5026105;28;19917;-70
2022/05/23 01:05:16;;;;;;;;;;;;;;;24.07;18.36;100365.56;5030704;28;19960;-70
2022/05/23 01:07:41;;;;;;;;;;;;;;;24.05;18.45;100362.31;5016538;28;19921;-70
2022/05/23 01:10:09;;;;;;;;;;;;;;;24.07;18.35;100362.03;5015974;28;19917;-70
2022/05/23 01:12:34;;;;;;;;;;;;;;;24.08;18.29;100355.50;5014358;28;19925;-70
2022/05/23 01:15:00;;;;;;;;;;;;;;;24.07;18.22;100365.56;5014129;28;19917;-70
2022/05/23 01:17:30;;;;;;;;;;;;;;;24.08;18.37;100369.16;5013796;28;19918;-71
2022/05/23 01:19:55;;;;;;;;;;;;;;;24.09;18.41;100368.84;5013767;28;19924;-70
2022/05/23 01:22:23;;;;;;;;;;;;;;;24.08;18.37;100371.88;5014100;28;20291;-70
2022/05/23 01:24:59;;;;;;;;;;;;;;;24.06;18.64;100366.69;5014078;28;20016;-70
2022/05/23 01:27:25;;;;;;;;;;;;;;;24.06;18.37;100363.13;5014012;28;19922;-71
2022/05/23 01:29:50;;;;;;;;;;;;;;;24.08;18.55;100363.69;5013587;28;19929;-70
2022/05/23 01:32:15;;;;;;;;;;;;;;;24.06;18.57;100361.22;5014030;28;19917;-70
2022/05/23 01:34:43;;;;;;;;;;;;;;;24.07;18.31;100364.75;5013713;28;19925;-70
2022/05/23 01:37:08;;;;;;;;;;;;;;;24.07;18.43;100357.38;5013880;28;19934;-70
2022/05/23 01:39:33;;;;;;;;;;;;;;;24.06;18.41;100363.97;5013844;28;20314;-70
2022/05/23 01:41:58;;;;;;;;;;;;;;;24.06;18.43;100354.94;5016784;28;20362;-70
2022/05/23 01:44:24;;;;;;;;;;;;;;;24.05;18.62;100358.78;5033521;28;19951;-70
2022/05/23 01:46:49;;;;;;;;;;;;;;;24.05;18.40;100365.03;5033334;28;19964;-70
2022/05/23 01:49:14;;;;;;;;;;;;;;;24.07;18.59;100365.56;5033544;28;19917;-70
2022/05/23 01:51:39;;;;;;;;;;;;;;;24.06;18.68;100366.69;5037212;28;19921;-70
2022/05/23 01:54:05;;;;;;;;;;;;;;;24.07;18.50;100360.13;5037322;28;19979;-70
2022/05/23 01:56:30;;;;;;;;;;;;;;;24.06;18.46;100366.69;5037113;28;19917;-70
2022/05/23 02:01:39;;;;;;;;;;;;;;;24.06;18.56;100372.16;5037230;28;19932;-70
2022/05/23 02:04:04;;;;;;;;;;;;;;;24.06;18.43;100374.88;5036855;28;20279;-70
2022/05/23 02:06:30;;;;;;;;;;;;;;;24.06;18.77;100365.84;5036914;28;19917;-70
2022/05/23 02:08:55;;;;;;;;;;;;;;;24.06;18.56;100366.69;5036995;28;19992;-70
2022/05/23 02:11:20;;;;;;;;;;;;;;;24.06;18.79;100372.16;5036681;28;20355;-70
2022/05/23 02:13:46;;;;;;;;;;;;;;;24.06;18.64;100372.16;5037032;28;19921;-70
2022/05/23 02:16:11;;;;;;;;;;;;;;;24.06;18.68;100363.13;5018947;28;20370;-70
2022/05/23 02:18:36;;;;;;;;;;;;;;;24.06;18.88;100361.22;5036569;28;20421;-70
2022/05/23 02:21:02;;;;;;;;;;;;;;;24.06;18.62;100363.13;5036764;28;19917;-70
2022/05/23 02:23:27;;;;;;;;;;;;;;;24.04;18.70;100366.13;5036845;28;20323;-70
2022/05/23 02:25:52;;;;;;;;;;;;;;;24.04;18.83;100357.94;5036782;28;20310;-70
2022/05/23 02:28:18;;;;;;;;;;;;;;;24.04;18.97;100357.94;5036358;28;19917;-70
2022/05/23 02:30:43;;;;;;;;;;;;;;;24.05;18.85;100356.03;5036675;28;19917;-70
2022/05/23 02:33:08;;;;;;;;;;;;;;;24.05;18.90;100354.13;5019138;28;20037;-70
2022/05/23 02:35:34;;;;;;;;;;;;;;;24.05;19.18;100358.78;5036294;28;19967;-70
2022/05/23 02:37:59;;;;;;;;;;;;;;;24.05;19.15;100358.78;5036464;28;20268;-70
2022/05/23 02:40:24;;;;;;;;;;;;;;;24.05;18.96;100359.59;5036110;28;19924;-70
2022/05/23 02:42:50;;;;;;;;;;;;;;;24.06;19.13;100355.78;5027147;28;19917;-70
2022/05/23 02:45:15;;;;;;;;;;;;;;;24.04;19.30;100352.47;5016764;28;19925;-70
2022/05/23 02:47:40;;;;;;;;;;;;;;;24.05;19.17;100359.59;5016462;28;19913;-70
2022/05/23 02:50:06;;;;;;;;;;;;;;;24.05;19.21;100359.59;5016207;28;19925;-70
2022/05/23 02:52:31;;;;;;;;;;;;;;;24.04;19.35;100347.03;5016161;28;19917;-70
2022/05/23 02:54:56;;;;;;;;;;;;;;;24.05;19.22;100354.13;5016394;28;19925;-70
2022/05/23 02:57:25;;;;;;;;;;;;;;;24.05;19.29;100354.13;5016435;28;20275;-70
2022/05/23 02:59:50;;;;;;;;;;;;;;;24.05;19.40;100358.78;5015999;28;19925;-70
2022/05/23 03:04:59;;;;;;;;;;;;;;;24.07;19.59;100354.66;5016020;28;19959;-70
2022/05/23 03:07:24;;;;;;;;;;;;;;;24.09;19.48;100360.66;5016045;28;19956;-70
2022/05/23 03:09:50;;;;;;;;;;;;;;;24.12;19.58;100353.81;5015748;28;20391;-70
2022/05/23 03:12:15;;;;;;;;;;;;;;;24.16;19.49;100357.63;5016684;28;19921;-70
2022/05/23 03:14:41;;;;;;;;;;;;;;;24.21;19.39;100356.78;5015962;28;20381;-70
2022/05/23 03:17:06;;;;;;;;;;;;;;;24.23;19.46;100351.88;5015967;28;19941;-70
2022/05/23 03:19:31;;;;;;;;;;;;;;;24.26;19.45;100356.78;5015631;28;19921;-70
2022/05/23 03:27:24;;;;;;;;;;;;;;;24.32;19.59;100358.41;5015655;28;20390;-75
2022/05/23 03:29:51;;;;;;;;;;;;;;;24.34;19.89;100356.19;5015285;28;19933;-75
2022/05/23 03:32:16;;;;;;;;;;;;;;;24.37;19.83;100356.44;5015899;28;20008;-75
2022/05/23 03:34:41;;;;;;;;;;;;;;;24.39;19.91;100356.19;5016247;28;19949;-75
2022/05/23 03:37:07;;;;;;;;;;;;;;;24.42;19.69;100355.59;5015734;28;20320;-75
2022/05/23 03:39:32;;;;;;;;;;;;;;;24.44;20.09;100356.16;5015680;28;19917;-75
2022/05/23 03:41:57;;;;;;;;;;;;;;;24.50;19.99;100348.75;5016479;28;19940;-75
2022/05/23 03:44:22;;;;;;;;;;;;;;;24.53;19.80;100354.44;5035180;28;19933;-75
2022/05/23 03:46:48;;;;;;;;;;;;;;;24.57;20.10;100345.72;5035385;28;20004;-75
2022/05/23 03:49:13;;;;;;;;;;;;;;;24.59;20.23;100346.25;5035406;28;19924;-75
2022/05/23 03:51:38;;;;;;;;;;;;;;;24.63;20.49;100350.03;5035175;28;19956;-75
2022/05/23 03:54:04;;;;;;;;;;;;;;;24.63;20.25;100345.41;5017206;28;19944;-76
2022/05/23 03:56:29;;;;;;;;;;;;;;;24.68;20.16;100339.91;5035111;28;19921;-76
2022/05/23 03:58:54;;;;;;;;;;;;;;;24.71;20.53;100338.53;5034932;28;20379;-76
2022/05/23 04:01:23;;;;;;;;;;;;;;;24.73;20.13;100339.88;5035443;28;19921;-76
2022/05/23 04:03:49;;;;;;;;;;;;;;;24.75;19.93;100334.13;5035472;28;19948;-72
2022/05/23 04:06:14;;;;;;;;;;;;;;;24.77;19.55;100331.09;5034769;28;20383;-72
2022/05/23 04:08:39;;;;;;;;;;;;;;;24.79;19.67;100328.91;5034381;28;20287;-72
2022/05/23 04:11:05;;;;;;;;;;;;;;;24.84;19.23;100326.97;5034516;28;19917;-72
2022/05/23 04:13:30;;;;;;;;;;;;;;;24.81;18.86;100323.97;5033616;28;20000;-72
2022/05/23 04:15:56;;;;;;;;;;;;;;;24.81;18.80;100322.06;5034138;28;19924;-73
2022/05/23 04:18:21;;;;;;;;;;;;;;;24.80;18.64;100317.72;5034646;28;19917;-72
2022/05/23 04:20:46;;;;;;;;;;;;;;;24.83;18.15;100324.50;5034424;28;19917;-72
2022/05/23 04:23:12;;;;;;;;;;;;;;;24.85;17.94;100323.13;5034024;28;20344;-72
2022/05/23 04:25:40;;;;;;;;;;;;;;;24.90;17.72;100323.06;5033834;28;20016;-72
2022/05/23 04:28:06;;;;;;;;;;;;;;;24.89;17.41;100326.13;5016281;28;20332;-73
2022/05/23 04:30:31;;;;;;;;;;;;;;;24.91;17.26;100321.97;5033682;28;19921;-73
2022/05/23 04:35:40;;;;;;;;;;;;;;;24.93;17.00;100322.50;5033826;28;19924;-72
2022/05/23 04:38:06;;;;;;;;;;;;;;;24.97;16.98;100314.56;5016126;28;20008;-72
2022/05/23 04:40:31;;;;;;;;;;;;;;;24.99;16.77;100327.94;5033845;28;19997;-72
2022/05/23 04:42:56;;;;;;;;;;;;;;;25.00;16.70;100322.19;5024860;28;20269;-72
2022/05/23 04:45:22;;;;;;;;;;;;;;;25.00;16.68;100324.91;5014416;28;19926;-73
2022/05/23 04:50:33;;;;;;;;;;;;;;;25.03;16.33;100324.34;5014385;28;19956;-72
2022/05/23 04:52:58;;;;;;;;;;;;;;;25.07;16.36;100324.59;5013822;28;19921;-72
2022/05/23 04:55:23;;;;;;;;;;;;;;;25.08;16.29;100321.56;5014092;28;20025;-72
2022/05/23 04:57:48;;;;;;;;;;;;;;;25.09;16.11;100322.38;5013953;28;20419;-72
2022/05/23 05:00:17;;;;;;;;;;;;;;;25.10;16.29;100318.56;5013982;28;20317;-73
2022/05/23 05:02:43;;;;;;;;;;;;;;;25.12;16.09;100321.81;5013646;28;20012;-70
2022/05/23 05:05:08;;;;;;;;;;;;;;;25.13;16.06;100323.47;5013547;28;19979;-70
2022/05/23 05:07:33;;;;;;;;;;;;;;;25.15;15.75;100329.44;5013765;28;19918;-70
2022/05/23 05:09:59;;;;;;;;;;;;;;;25.20;16.13;100329.41;5013397;28;20392;-68
2022/05/23 05:12:24;;;;;;;;;;;;;;;25.26;16.04;100322.81;5013416;28;19917;-70
2022/05/23 05:14:49;;;;;;;;;;;;;;;25.23;15.91;100323.38;5013910;28;19960;-70
2022/05/23 05:17:14;;;;;;;;;;;;;;;25.26;16.43;100331.00;5014028;28;20328;-70
2022/05/23 05:19:40;;;;;;;;;;;;;;;25.29;16.55;100327.72;5013812;28;20261;-69
2022/05/23 05:22:05;;;;;;;;;;;;;;;25.32;16.44;100328.22;5013383;28;20016;-70
2022/05/23 05:24:32;;;;;;;;;;;;;;;25.32;16.20;100325.50;5013158;28;19918;-69
2022/05/23 05:26:58;;;;;;;;;;;;;;;25.37;16.00;100319.97;5017600;28;20345;-69
2022/05/23 05:29:23;;;;;;;;;;;;;;;25.33;16.11;100325.22;5017491;28;19980;-70
2022/05/23 05:31:56;;;;;;;;;;;;;;;25.36;16.08;100321.91;5017305;28;20284;-70
2022/05/23 05:34:26;;;;;;;;;;;;;;;25.36;16.01;100321.09;5017196;28;20288;-71
2022/05/23 05:36:52;;;;;;;;;;;;;;;25.41;15.85;100329.25;5017457;28;19918;-69
2022/05/23 05:39:18;;;;;;;;;;;;;;;25.39;15.67;100315.88;5017481;28;19956;-70
2022/05/23 05:41:45;;;;;;;;;;;;;;;25.39;15.66;100325.97;5016919;28;20245;-70
2022/05/23 05:44:12;;;;;;;;;;;;;;;25.42;15.70;100323.50;5034547;28;19925;-69
2022/05/23 05:46:39;;;;;;;;;;;;;;;25.41;15.48;100312.84;5002776;28;20280;-70
2022/05/23 05:49:08;;;;;;;;;;;;;;;25.42;15.66;100315.28;5019172;28;19924;-69
2022/05/23 05:51:33;;;;;;;;;;;;;;;25.52;15.84;100310.81;5037270;28;19917;-70
2022/05/23 05:53:58;;;;;;;;;;;;;;;25.51;15.98;100312.75;5036928;28;20439;-70
2022/05/23 05:56:24;;;;;;;;;;;;;;;25.52;15.92;100311.63;5036717;28;19934;-70
2022/05/23 05:58:49;;;;;;;;;;;;;;;25.54;15.69;100305.84;5036750;28;19921;-70
2022/05/23 06:01:14;;;;;;;;;;;;;;;25.53;15.74;100309.72;5018891;28;19931;-70
2022/05/23 06:03:40;;;;;;;;;;;;;;;25.65;15.48;100307.41;5019618;28;20355;-72
2022/05/23 06:11:33;;;;;;;;;;;;;;;25.71;15.74;100310.88;5036634;28;19924;-70
2022/05/23 06:13:59;;;;;;;;;;;;;;;25.73;15.62;100311.41;5036687;28;19921;-70
2022/05/23 06:16:25;;;;;;;;;;;;;;;25.72;15.86;100316.06;5036282;28;20383;-70
2022/05/23 06:18:50;;;;;;;;;;;;;;;25.79;15.46;100310.25;5036115;28;20007;-70
2022/05/23 06:21:15;;;;;;;;;;;;;;;25.75;15.63;100303.72;5036564;28;19972;-70
2022/05/23 06:23:41;;;;;;;;;;;;;;;25.77;15.64;100309.72;5036561;28;19917;-70
2022/05/23 06:26:06;;;;;;;;;;;;;;;25.77;15.72;100296.84;5036168;28;19917;-69
2022/05/23 06:28:31;;;;;;;;;;;;;;;25.79;15.74;100300.09;5035669;28;19921;-71
2022/05/23 06:30:57;;;;;;;;;;;;;;;25.84;15.53;100305.53;5035948;28;20004;-70
2022/05/23 06:33:23;;;;;;;;;;;;;;;25.81;15.82;100294.34;5036088;28;20005;-70
2022/05/23 06:35:48;;;;;;;;;;;;;;;25.95;15.51;100292.53;5035308;28;19949;-70
2022/05/23 06:38:14;;;;;;;;;;;;;;;26.07;15.33;100302.28;5035798;28;20314;-70
2022/05/23 06:40:39;;;;;;;;;;;;;;;26.18;15.34;100303.75;5018158;28;19954;-70
2022/05/23 06:43:04;;;;;;;;;;;;;;;26.24;15.01;100295.19;5028458;28;19929;-70
2022/05/23 06:45:30;;;;;;;;;;;;;;;26.29;14.96;100288.81;5016531;28;19930;-70
2022/05/23 06:47:57;;;;;;;;;;;;;;;26.34;15.20;100291.50;5016130;28;19924;-71
2022/05/23 06:50:22;;;;;;;;;;;;;;;26.47;15.03;100289.94;5015893;28;19922;-70
2022/05/23 06:52:47;;;;;;;;;;;;;;;26.64;14.81;100288.63;5015684;28;20523;-71
2022/05/23 06:55:13;;;;;;;;;;;;;;;26.69;14.83;100291.28;5016113;28;19918;-70
2022/05/23 06:57:38;;;;;;;;;;;;;;;26.87;14.55;100293.19;5016696;28;19918;-70
2022/05/23 07:00:04;;;;;;;;;;;;;;;27.06;14.27;100295.06;5015816;28;19941;-71
2022/05/23 07:02:29;;;;;;;;;;;;;;;27.06;14.40;100289.56;4999665;28;19936;-72
2022/05/23 07:13:07;;;;;;;;;;;;;;;27.39;14.38;100290.41;5015766;28;19924;-71
2022/05/23 07:15:36;;;;;;;;;;;;;;;27.42;14.40;100287.03;5015782;28;19917;-70
2022/05/23 07:18:03;;;;;;;;;;;;;;;27.40;14.63;100283.78;5015618;28;19925;-69
2022/05/23 07:20:28;;;;;;;;;;;;;;;27.19;14.79;100283.31;5015190;28;19972;-72
2022/05/23 07:22:53;;;;;;;;;;;;;;;27.29;14.97;100285.09;5014920;28;19921;-71
2022/05/23 07:25:19;;;;;;;;;;;;;;;27.48;14.83;100285.03;5015188;28;20357;-70
2022/05/23 07:27:44;;;;;;;;;;;;;;;27.42;15.04;100284.28;5015708;28;19918;-70
2022/05/23 07:30:09;;;;;;;;;;;;;;;27.55;15.06;100290.91;5015281;28;20474;-70
2022/05/23 07:32:35;;;;;;;;;;;;;;;27.45;15.32;100291.91;5016024;28;19922;-68
2022/05/23 07:35:03;;;;;;;;;;;;;;;27.60;15.12;100290.00;5016716;28;20272;-68
2022/05/23 07:37:28;;;;;;;;;;;;;;;27.72;15.10;100298.56;4997838;28;19922;-70
2022/05/23 07:39:56;;;;;;;;;;;;;;;27.79;14.90;100295.41;5015466;28;19941;-70
2022/05/23 07:42:21;;;;;;;;;;;;;;;27.83;14.76;100299.97;5015667;28;19917;-68
2022/05/23 07:44:47;;;;;;;;;;;;;;;27.75;14.60;100299.88;5034935;28;19968;-68
2022/05/23 07:47:12;;;;;;;;;;;;;;;27.77;14.74;100303.09;5036325;28;19924;-69
2022/05/23 07:49:37;;;;;;;;;;;;;;;27.84;14.53;100293.34;5034968;28;19921;-69
2022/05/23 07:52:03;;;;;;;;;;;;;;;27.90;14.49;100297.59;5035283;28;20348;-68
2022/05/23 08:02:40;;;;;;;;;;;;;;;28.20;14.22;100309.13;5041749;28;19928;-70
2022/05/23 08:05:05;;;;;;;;;;;;;;;28.05;14.27;100301.22;5039926;28;19917;-70
2022/05/23 08:07:31;;;;;;;;;;;;;;;28.03;14.12;100298.75;5036509;28;19980;-70
2022/05/23 08:10:00;;;;;;;;;;;;;;;28.05;14.22;100301.22;5038448;28;19964;-70
2022/05/23 08:12:25;;;;;;;;;;;;;;;28.06;14.20;100311.06;5035079;28;19917;-70
2022/05/23 08:14:50;;;;;;;;;;;;;;;28.01;14.11;100297.44;5016579;28;19924;-69
2022/05/23 08:17:16;;;;;;;;;;;;;;;27.98;14.16;100303.56;5034662;28;20003;-70
2022/05/23 08:19:41;;;;;;;;;;;;;;;27.94;14.17;100294.28;5035594;28;19917;-70
2022/05/23 08:22:07;;;;;;;;;;;;;;;27.93;14.02;100298.16;5035431;28;20240;-70
2022/05/23 08:24:33;;;;;;;;;;;;;;;27.86;14.06;100296.59;5015951;28;19917;-70
2022/05/23 08:26:59;;;;;;;;;;;;;;;27.84;14.18;100293.34;5034004;28;19917;-70
2022/05/23 08:29:25;;;;;;;;;;;;;;;27.81;14.12;100298.66;5033871;28;19921;-70
2022/05/23 08:31:50;;;;;;;;;;;;;;;27.78;13.95;100297.31;5035338;28;19917;-70
2022/05/23 08:34:15;;;;;;;;;;;;;;;27.74;14.16;100290.81;5016314;28;20011;-70
2022/05/23 08:36:41;;;;;;;;;;;;;;;27.71;14.15;100288.69;5034012;28;19966;-68
2022/05/23 08:39:06;;;;;;;;;;;;;;;27.69;14.05;100293.66;5033830;28;20338;-69
2022/05/23 08:41:32;;;;;;;;;;;;;;;27.66;14.10;100294.28;5033590;28;19924;-69
2022/05/23 08:44:07;;;;;;;;;;;;;;;27.66;14.09;100294.28;5003057;28;19932;-69
2022/05/23 08:46:50;;;;;;;;;;;;;;;27.62;14.16;100298.75;5013696;28;19917;-69
2022/05/23 08:49:21;;;;;;;;;;;;;;;27.57;14.20;100296.09;5013253;28;20364;-69
2022/05/23 08:52:06;;;;;;;;;;;;;;;27.57;14.06;100293.38;4996130;28;19918;-69
2022/05/23 08:54:35;;;;;;;;;;;;;;;27.49;14.44;100298.44;5013369;28;20378;-68
2022/05/23 08:57:01;;;;;;;;;;;;;;;27.44;14.51;100290.31;5013392;28;19925;-69
2022/05/23 08:59:27;;;;;;;;;;;;;;;27.44;14.45;100290.31;5013358;28;19918;-70
2022/05/23 09:01:59;;;;;;;;;;;;;;;27.44;14.41;100294.97;4995863;28;19952;-69
2022/05/23 09:04:42;;;;;;;;;;;;;;;27.40;14.53;100293.94;4995658;28;19925;-68
2022/05/23 09:07:08;;;;;;;;;;;;;;;27.41;14.69;100299.13;4995617;28;19924;-70
2022/05/23 09:09:36;;;;;;;;;;;;;;;27.40;14.53;100283.78;5013636;28;19917;-69
2022/05/23 09:12:06;;;;;;;;;;;;;;;27.39;14.79;100282.16;4996131;28;19921;-68
2022/05/23 09:14:31;;;;;;;;;;;;;;;27.39;14.93;100284.91;4995452;28;19918;-69
2022/05/23 09:16:56;;;;;;;;;;;;;;;27.30;15.04;100289.44;5013309;28;19917;-69
2022/05/23 09:19:26;;;;;;;;;;;;;;;27.24;15.04;100276.94;5013312;28;19961;-68
2022/05/23 09:24:45;;;;;;;;;;;;;;;27.31;15.03;100274.63;4998441;28;19925;-69
2022/05/23 09:27:20;;;;;;;;;;;;;;;27.28;15.05;100277.97;5013742;28;19921;-70
2022/05/23 09:29:48;;;;;;;;;;;;;;;27.23;15.20;100267.06;4995305;28;19921;-68
2022/05/23 09:32:15;;;;;;;;;;;;;;;27.26;14.96;100277.44;4995563;28;19918;-69
2022/05/23 09:34:44;;;;;;;;;;;;;;;27.28;15.03;100277.97;5013633;28;19928;-69
2022/05/23 09:37:30;;;;;;;;;;;;;;;27.30;14.82;100273.81;5013141;28;19928;-69
2022/05/23 09:39:56;;;;;;;;;;;;;;;27.25;14.83;100264.81;5013430;28;19918;-69
2022/05/23 09:48:13;;;;;;;;;;;;;;;27.22;14.70;100255.28;5013525;28;20012;-69
2022/05/23 09:50:40;;;;;;;;;;;;;;;27.29;14.67;100263.16;5013487;28;20356;-69
2022/05/23 09:53:13;;;;;;;;;;;;;;;27.27;14.69;100265.31;5013105;28;20063;-68
2022/05/23 09:55:39;;;;;;;;;;;;;;;27.30;14.63;100264.75;4996092;28;19924;-68
2022/05/23 09:58:07;;;;;;;;;;;;;;;27.33;14.65;100261.41;4995180;28;20284;-68
2022/05/23 10:00:37;;;;;;;;;;;;;;;27.32;14.48;100259.78;5013506;28;19940;-69
2022/05/23 10:03:04;;;;;;;;;;;;;;;27.19;14.61;100260.56;5012928;28;20032;-68
2022/05/23 10:05:32;;;;;;;;;;;;;;;27.16;14.64;100264.72;5013486;28;19972;-68
2022/05/23 10:08:01;;;;;;;;;;;;;;;27.16;14.78;100257.31;5012443;28;19924;-69
2022/05/23 10:10:27;;;;;;;;;;;;;;;27.21;14.80;100261.88;4994954;28;19921;-67
2022/05/23 10:13:09;;;;;;;;;;;;;;;27.17;14.90;100261.66;5016361;28;19925;-69
2022/05/23 10:15:35;;;;;;;;;;;;;;;27.26;14.73;100267.25;5016893;28;20349;-69
2022/05/23 10:18:01;;;;;;;;;;;;;;;27.25;14.88;100259.34;4999168;28;19921;-69
2022/05/23 10:20:31;;;;;;;;;;;;;;;27.32;14.78;100260.63;4999090;28;20016;-68
2022/05/23 10:22:56;;;;;;;;;;;;;;;27.14;14.95;100265.00;4998542;28;20257;-70
2022/05/23 10:25:22;;;;;;;;;;;;;;;27.13;14.88;100263.41;5015981;28;19928;-69
2022/05/23 10:27:57;;;;;;;;;;;;;;;27.10;14.87;100266.75;4998634;28;20056;-69
2022/05/23 10:30:23;;;;;;;;;;;;;;;27.20;14.96;100259.44;4997835;28;19932;-69
2022/05/23 10:32:51;;;;;;;;;;;;;;;27.13;14.91;100266.13;4996848;28;20032;-69
2022/05/23 10:35:35;;;;;;;;;;;;;;;27.04;14.92;100264.38;4979744;28;19953;-69
2022/05/23 10:43:40;;;;;;;;;;;;;;;27.09;14.81;100250.59;4948844;28;20005;-70
2022/05/23 10:46:05;;;;;;;;;;;;;;;26.94;15.06;100248.91;4974760;28;19968;-71
2022/05/23 10:48:50;;;;;;;;;;;;;;;26.98;14.93;100253.50;4974925;28;19966;-69
2022/05/23 10:51:33;;;;;;;;;;;;;;;27.00;14.93;100252.41;4974305;28;19918;-71
2022/05/23 10:54:14;;;;;;;;;;;;;;;27.01;14.97;100249.34;4974733;28;19918;-70
2022/05/23 10:57:02;;;;;;;;;;;;;;;26.99;14.93;100251.56;4974630;28;20408;-70
2022/05/23 10:59:30;;;;;;;;;;;;;;;26.95;15.01;100245.88;4974865;28;20448;-71
2022/05/23 11:02:05;;;;;;;;;;;;;;;27.00;15.02;100246.91;4974235;28;20341;-70
2022/05/23 11:04:30;;;;;;;;;;;;;;;27.00;15.18;100241.44;4974922;28;19922;-69
2022/05/23 11:06:58;;;;;;;;;;;;;;;27.01;15.21;100246.63;4975010;28;19937;-70
2022/05/23 11:09:32;;;;;;;;;;;;;;;27.01;15.22;100243.88;4974418;28;19918;-70
2022/05/23 11:12:02;;;;;;;;;;;;;;;27.11;15.01;100243.69;4974329;28;19925;-69
2022/05/23 11:14:49;;;;;;;;;;;;;;;27.09;15.07;100243.16;4974705;28;20012;-70
2022/05/23 11:17:14;;;;;;;;;;;;;;;27.14;15.04;100245.81;4983799;28;20064;-70
2022/05/23 11:19:39;;;;;;;;;;;;;;;27.10;14.83;100246.72;5015222;28;20391;-70
2022/05/23 11:22:09;;;;;;;;;;;;;;;27.12;14.82;100242.56;5015203;28;19917;-70
2022/05/23 11:24:40;;;;;;;;;;;;;;;27.08;14.92;100237.97;5015346;28;19924;-70
2022/05/23 11:35:47;;;;;;;;;;;;;;;27.07;15.03;100239.91;5019729;28;19928;-70
2022/05/23 11:38:13;;;;;;;;;;;;;;;27.05;15.12;100244.88;5034654;28;19928;-70
2022/05/23 11:40:38;;;;;;;;;;;;;;;26.88;15.46;100239.97;5034988;28;19917;-70
2022/05/23 11:43:08;;;;;;;;;;;;;;;26.93;15.29;100234.41;5035085;28;19917;-69
2022/05/23 11:48:26;;;;;;;;;;;;;;;27.06;15.02;100241.03;5034629;28;20283;-70
2022/05/23 11:50:52;;;;;;;;;;;;;;;27.04;15.06;100240.50;5034292;28;19948;-70
2022/05/23 11:53:20;;;;;;;;;;;;;;;27.07;15.16;100239.09;5034153;28;19921;-70
2022/05/23 11:55:55;;;;;;;;;;;;;;;27.02;15.21;100240.00;5034542;28;19955;-71
2022/05/23 11:58:37;;;;;;;;;;;;;;;27.17;14.95;100236.19;5034527;28;19928;-71
2022/05/23 12:01:10;;;;;;;;;;;;;;;27.10;15.01;100235.75;5034140;28;19917;-71
2022/05/23 12:03:47;;;;;;;;;;;;;;;27.03;15.11;100236.16;5034541;28;19917;-71
2022/05/23 12:06:19;;;;;;;;;;;;;;;26.99;14.98;100229.63;5035046;28;20275;-70
2022/05/23 12:08:57;;;;;;;;;;;;;;;26.78;15.28;100231.91;5030702;28;19943;-70
2022/05/23 12:11:22;;;;;;;;;;;;;;;27.02;15.31;100231.78;5033815;28;20340;-70
2022/05/23 12:13:49;;;;;;;;;;;;;;;26.94;15.48;100236.03;5034456;28;19983;-70
2022/05/23 12:16:20;;;;;;;;;;;;;;;26.99;15.29;100240.59;5016509;28;19924;-70
2022/05/23 12:18:47;;;;;;;;;;;;;;;26.94;15.17;100232.47;5034482;28;19971;-72
2022/05/23 12:21:39;;;;;;;;;;;;;;;26.93;15.06;100234.41;5016755;28;19917;-72
2022/05/23 12:24:23;;;;;;;;;;;;;;;27.05;14.98;100227.63;5032135;28;19924;-71
2022/05/23 12:26:50;;;;;;;;;;;;;;;27.04;15.15;100226.78;5033768;28;19936;-72
2022/05/23 12:29:29;;;;;;;;;;;;;;;26.99;14.98;100221.41;5033306;28;19928;-72
2022/05/23 12:32:13;;;;;;;;;;;;;;;26.93;15.14;100217.13;5033726;28;19925;-71
2022/05/23 12:34:41;;;;;;;;;;;;;;;27.01;15.03;100219.19;5032612;28;20323;-71
2022/05/23 12:37:09;;;;;;;;;;;;;;;26.99;15.03;100226.88;5016113;28;19932;-70
2022/05/23 12:39:53;;;;;;;;;;;;;;;27.04;14.83;100221.31;5015893;28;19917;-70
2022/05/23 12:42:18;;;;;;;;;;;;;;;27.03;14.74;100225.19;5033726;28;19929;-71
2022/05/23 12:44:46;;;;;;;;;;;;;;;27.00;14.89;100225.78;5020036;28;20329;-71
2022/05/23 12:47:26;;;;;;;;;;;;;;;27.03;14.73;100219.69;5014061;28;19922;-70
2022/05/23 12:50:01;;;;;;;;;;;;;;;27.03;14.92;100216.97;5013405;28;19922;-70
2022/05/23 12:52:41;;;;;;;;;;;;;;;27.00;14.73;100209.31;5013422;28;20319;-71
2022/05/23 12:55:16;;;;;;;;;;;;;;;27.03;14.80;100208.72;5013888;28;19917;-70
2022/05/23 12:57:47;;;;;;;;;;;;;;;26.96;14.81;100209.13;5013478;28;19921;-72
2022/05/23 13:00:14;;;;;;;;;;;;;;;27.00;14.73;100206.59;5013597;28;19918;-70
2022/05/23 13:02:42;;;;;;;;;;;;;;;27.02;14.54;100209.84;4996471;28;19924;-70
2022/05/23 13:05:07;;;;;;;;;;;;;;;27.00;14.67;100214.81;5013972;28;19924;-70
2022/05/23 13:07:59;;;;;;;;;;;;;;;26.95;14.85;100212.97;5013962;28;19917;-71
2022/05/23 13:10:34;;;;;;;;;;;;;;;26.90;15.06;100220.47;4953305;29;20074;-70
2022/05/23 13:12:59;;;;;;;;;;;;;;;26.94;14.90;100219.59;4937299;29;20447;-71
2022/05/23 13:15:28;;;;;;;;;;;;;;;26.95;14.76;100217.66;4953424;29;20014;-71
2022/05/23 13:17:53;;;;;;;;;;;;;;;26.87;14.98;100215.59;4953577;29;19918;-70
2022/05/23 13:23:12;;;;;;;;;;;;;;;26.89;14.91;100207.88;4939950;29;19941;-70
2022/05/23 13:25:37;;;;;;;;;;;;;;;26.87;14.76;100199.13;4953240;29;19978;-71
2022/05/23 13:28:06;;;;;;;;;;;;;;;26.84;14.82;100203.31;4953568;29;19918;-72
2022/05/23 13:30:33;;;;;;;;;;;;;;;26.84;14.58;100200.56;4937459;29;20093;-71
2022/05/23 13:33:09;;;;;;;;;;;;;;;26.83;14.70;100198.94;4953488;29;20014;-72
2022/05/23 13:35:35;;;;;;;;;;;;;;;26.81;14.55;100195.69;4953234;29;20372;-71
2022/05/23 13:38:23;;;;;;;;;;;;;;;26.81;14.49;100200.38;4953073;29;20010;-71
2022/05/23 13:40:58;;;;;;;;;;;;;;;26.78;14.61;100197.09;4952974;29;19949;-72
2022/05/23 13:43:23;;;;;;;;;;;;;;;26.77;14.53;100200.16;4954141;28;19926;-71
2022/05/23 13:45:55;;;;;;;;;;;;;;;26.75;14.60;100199.63;4972628;28;19922;-71
2022/05/23 13:48:21;;;;;;;;;;;;;;;26.74;14.47;100201.56;5035756;28;19983;-71